Time;durP1;ratioP1;P1;durP2;ratioP2;P2;SDS_P1;SDS_P2;PMS_P1;PMS_P2;Temp;Humidity;BMP_temperature;BMP_pressure;BME280_temperature;BME280_humidity;BME280_pressure;Samples;Min_cycle;Max_cycle;Signal;HPM_P1;HPM_P2
2021/11/17 02:27:19;;;;;;;20.73;10.20;;;;;;;8.66;73.44;100498.59;5050996;28;20124;-38
2021/11/17 02:30:06;;;;;;;18.48;9.77;;;;;;;8.40;73.93;100494.38;5050930;28;20086;-37
2021/11/17 02:32:43;;;;;;;20.30;10.15;;;;;;;8.37;73.99;100500.00;5050037;28;20056;-38
2021/11/17 02:35:29;;;;;;;16.27;9.68;;;;;;;8.50;72.23;100488.91;5049754;28;20433;-38
2021/11/17 02:38:11;;;;;;;16.70;9.35;;;;;;;8.73;71.73;100496.91;5042277;28;20043;-38
2021/11/17 02:40:54;;;;;;;16.73;9.40;;;;;;;8.45;72.11;100502.66;5050202;28;20025;-38
2021/11/17 02:43:45;;;;;;;14.20;8.95;;;;;;;8.63;70.94;100499.78;5050141;28;20075;-38
2021/11/17 02:46:44;;;;;;;15.25;8.35;;;;;;;9.08;69.07;100503.56;5049501;28;20071;-38
2021/11/17 02:49:35;;;;;;;13.60;8.18;;;;;;;8.78;68.90;100497.25;5049787;28;20040;-38
2021/11/17 02:52:31;;;;;;;10.45;6.32;;;;;;;8.50;68.25;100476.44;5049953;28;20416;-38
2021/11/17 02:55:19;;;;;;;11.30;5.88;;;;;;;8.51;67.80;100495.84;5049609;28;20028;-37
2021/11/17 02:58:09;;;;;;;9.38;5.57;;;;;;;8.30;67.79;100510.47;5050352;28;20029;-38
2021/11/17 03:00:57;;;;;;;12.02;5.15;;;;;;;8.25;68.27;100509.34;5049826;28;20013;-38
2021/11/17 03:03:28;;;;;;;7.40;4.60;;;;;;;8.22;67.55;100513.13;5049095;28;20021;-38
2021/11/17 03:06:44;;;;;;;10.15;5.22;;;;;;;8.41;66.83;100498.66;5049170;28;20025;-38
2021/11/17 03:09:25;;;;;;;9.20;4.70;;;;;;;8.68;66.73;100492.16;5007288;28;20112;-38
2021/11/17 03:11:53;;;;;;;8.63;4.57;;;;;;;8.44;66.92;100489.59;5007989;28;20477;-37
2021/11/17 03:14:44;;;;;;;8.20;4.60;;;;;;;8.36;67.49;100485.09;5035468;28;20041;-38
2021/11/17 03:17:21;;;;;;;9.40;4.63;;;;;;;8.18;67.87;100491.44;5049688;28;20472;-38
2021/11/17 03:20:17;;;;;;;8.27;4.50;;;;;;;8.10;68.78;100490.63;5028217;28;20033;-38
2021/11/17 03:22:57;;;;;;;11.02;5.53;;;;;;;7.97;69.07;100462.81;5028849;28;20048;-38
2021/11/17 03:25:58;;;;;;;6.55;4.65;;;;;;;8.10;69.10;100482.69;5029652;28;20104;-38
2021/11/17 03:28:50;;;;;;;8.57;4.60;;;;;;;7.84;70.16;100475.75;5029448;28;20071;-38
2021/11/17 03:31:30;;;;;;;11.75;5.20;;;;;;;8.18;69.21;100486.13;5036696;28;20017;-38
2021/11/17 03:33:59;;;;;;;10.18;5.22;;;;;;;8.30;69.14;100478.66;5049384;28;20436;-38
2021/11/17 03:37:01;;;;;;;8.27;5.30;;;;;;;8.16;69.24;100484.66;5049458;28;20025;-38
2021/11/17 03:40:02;;;;;;;10.25;5.43;;;;;;;8.13;69.53;100483.19;5048878;28;20075;-37
2021/11/17 03:42:44;;;;;;;8.63;4.63;;;;;;;7.95;70.58;100493.97;5049104;28;20021;-37
2021/11/17 03:45:38;;;;;;;7.20;4.80;;;;;;;7.96;70.26;100492.97;5049028;28;20025;-37
2021/11/17 03:48:19;;;;;;;8.80;4.85;;;;;;;7.93;70.99;100495.13;5048275;28;20032;-38
2021/11/17 03:50:56;;;;;;;;;;;;;;;7.97;70.58;100499.09;5049818;28;20025;-37
2021/11/17 03:53:43;;;;;;;8.13;5.35;;;;;;;8.10;70.59;100503.91;5048904;28;19923;-38
2021/11/17 03:56:21;;;;;;;10.48;5.30;;;;;;;8.01;70.65;100497.75;5048857;28;20053;-38
2021/11/17 03:58:49;;;;;;;12.60;5.50;;;;;;;8.00;70.98;100496.94;5049237;28;20660;-38
2021/11/17 04:01:24;;;;;;;9.68;5.30;;;;;;;8.82;68.26;100493.22;5047919;28;20017;-37
2021/11/17 04:04:07;;;;;;;8.13;5.80;;;;;;;8.28;69.72;100496.56;5048794;28;20028;-38
2021/11/17 04:06:57;;;;;;;9.63;5.50;;;;;;;7.95;71.58;100491.31;5048730;28;20131;-37
2021/11/17 04:09:46;;;;;;;9.55;5.95;;;;;;;8.16;70.78;100490.78;5048295;28;20032;-37
2021/11/17 04:12:40;;;;;;;15.25;6.43;;;;;;;8.05;71.10;100507.03;5049632;28;20082;-37
2021/11/17 04:15:29;;;;;;;14.32;6.30;;;;;;;8.18;70.85;100496.72;5049106;28;20033;-38
2021/11/17 04:17:58;;;;;;;16.60;6.50;;;;;;;8.14;71.22;100502.56;5048929;28;20048;-38
2021/11/17 04:20:29;;;;;;;12.80;6.45;;;;;;;8.30;70.46;100501.69;5048060;28;20096;-38
2021/11/17 04:23:08;;;;;;;12.68;7.30;;;;;;;8.28;70.16;100496.56;5049060;28;20063;-38
2021/11/17 04:25:58;;;;;;;13.93;6.97;;;;;;;8.22;70.52;100500.72;5048528;28;20045;-38
2021/11/17 04:28:51;;;;;;;13.88;7.13;;;;;;;8.35;70.25;100502.81;5049138;28;20083;-39
2021/11/17 04:31:50;;;;;;;14.00;7.30;;;;;;;8.27;70.47;100497.56;5051323;28;20032;-38
2021/11/17 04:34:24;;;;;;;15.52;7.15;;;;;;;8.54;69.91;100498.97;5052769;28;20045;-38
2021/11/17 04:36:53;;;;;;;13.48;7.45;;;;;;;8.91;68.17;100488.69;5052979;28;20036;-39
2021/11/17 04:39:40;;;;;;;13.23;7.57;;;;;;;8.59;69.48;100499.31;5052496;28;20116;-38
2021/11/17 04:42:14;;;;;;;13.60;7.07;;;;;;;8.39;70.16;100508.63;5052619;28;20067;-39
2021/11/17 04:45:10;;;;;;;14.27;7.90;;;;;;;8.35;70.63;100496.69;5052974;28;20033;-39
2021/11/17 04:48:01;;;;;;;11.68;7.30;;;;;;;8.25;71.19;100501.38;5051936;28;20032;-38
2021/11/17 04:50:55;;;;;;;11.60;6.38;;;;;;;8.11;71.96;100501.09;5052529;28;20530;-37
2021/11/17 04:54:06;;;;;;;11.15;6.50;;;;;;;7.95;72.40;100507.22;5052640;28;20037;-37
2021/11/17 04:56:34;;;;;;;11.45;6.70;;;;;;;8.16;72.01;100511.97;5046540;28;20040;-37
2021/11/17 04:59:19;;;;;;;11.48;6.85;;;;;;;8.30;71.86;100507.84;5052177;28;20037;-38
2021/11/17 05:02:00;;;;;;;17.77;7.20;;;;;;;8.55;70.30;100508.59;5051748;28;20393;-38
2021/11/17 05:04:31;;;;;;;;;;;;;;;8.17;71.64;100513.66;5052759;28;20037;-38
2021/11/17 05:07:06;;;;;;;14.45;7.03;;;;;;;7.95;71.99;100485.19;5052235;28;19908;-37
2021/11/17 05:10:08;;;;;;;11.63;5.95;;;;;;;7.74;73.09;100509.56;5051950;28;20111;-37
2021/11/17 05:12:59;;;;;;;16.65;6.25;;;;;;;7.75;73.23;100516.50;5052273;28;20106;-38
2021/11/17 05:15:30;;;;;;;15.98;7.07;;;;;;;8.08;72.02;100516.50;5052121;28;20040;-37
2021/11/17 05:18:28;;;;;;;11.15;6.00;;;;;;;7.90;72.24;100520.16;5051609;28;20025;-37
2021/11/17 05:21:03;;;;;;;16.08;6.90;;;;;;;8.25;71.60;100522.59;5050617;28;20040;-37
2021/11/17 05:23:51;;;;;;;13.23;7.43;;;;;;;8.42;71.03;100526.88;5051777;28;20469;-37
2021/11/17 05:26:28;;;;;;;18.55;8.85;;;;;;;8.40;70.17;100524.38;5051443;28;20059;-37
2021/11/17 05:29:09;;;;;;;21.92;10.15;;;;;;;8.20;70.99;100531.03;5051497;28;20040;-37
2021/11/17 05:31:37;;;;;;;18.55;9.68;;;;;;;8.48;70.98;100525.38;5051279;28;20040;-40
2021/11/17 05:34:24;;;;;;;19.08;9.60;;;;;;;8.66;70.67;100530.44;5051405;28;20510;-37
2021/11/17 05:36:52;;;;;;;20.77;10.50;;;;;;;8.38;71.06;100538.81;5031738;28;20112;-38
2021/11/17 05:39:40;;;;;;;21.35;9.70;;;;;;;8.32;71.52;100540.31;5031447;28;20029;-38
2021/11/17 05:43:01;;;;;;;25.40;11.18;;;;;;;8.33;71.05;100538.47;5027792;28;20111;-38
2021/11/17 05:45:47;;;;;;;25.88;11.00;;;;;;;8.42;71.15;100542.81;5019349;28;20041;-38
2021/11/17 05:48:37;;;;;;;27.42;12.77;;;;;;;8.35;71.66;100539.13;5043977;28;20032;-37
2021/11/17 05:51:21;;;;;;;30.63;13.10;;;;;;;8.42;71.22;100550.75;5050467;28;20021;-38
2021/11/17 05:54:24;;;;;;;26.85;12.82;;;;;;;8.30;71.79;100544.97;5050013;28;20113;-38
2021/11/17 05:57:14;;;;;;;26.60;13.35;;;;;;;8.88;69.13;100550.13;5049627;28;20090;-38
2021/11/17 05:59:45;;;;;;;24.38;13.57;;;;;;;8.48;70.81;100550.06;5049355;28;20025;-38
2021/11/17 06:02:48;;;;;;;27.15;14.02;;;;;;;8.29;71.52;100547.78;5049278;28;20028;-38
2021/11/17 06:05:13;;;;;;;29.70;13.05;;;;;;;8.36;71.22;100554.06;5050655;28;20025;-38
2021/11/17 06:07:39;;;;;;;26.27;13.02;;;;;;;8.31;71.94;100548.44;5050082;28;20029;-38
2021/11/17 06:10:11;;;;;;;22.83;11.93;;;;;;;8.20;72.01;100547.78;5050034;28;20028;-39
2021/11/17 06:12:36;;;;;;;20.48;11.57;;;;;;;8.15;72.28;100550.13;5050394;28;20051;-38
2021/11/17 06:15:03;;;;;;;20.73;11.80;;;;;;;8.24;72.22;100556.22;5049864;28;20381;-38
2021/11/17 06:17:29;;;;;;;19.55;10.57;;;;;;;8.21;71.98;100556.56;5049615;28;20124;-38
2021/11/17 06:19:55;;;;;;;17.90;9.27;;;;;;;8.08;72.33;100558.91;5047484;28;20472;-38
2021/11/17 06:22:21;;;;;;;19.92;9.90;;;;;;;8.23;72.08;100551.94;5048398;28;20083;-39
2021/11/17 06:24:48;;;;;;;16.50;9.60;;;;;;;8.14;72.22;100553.75;5074079;28;20021;-38
2021/11/17 06:27:21;;;;;;;24.38;10.10;;;;;;;8.01;72.95;100545.47;5031501;28;20107;-38
2021/11/17 06:29:47;;;;;;;18.85;9.77;;;;;;;7.94;73.07;100545.34;5048850;28;20048;-38
2021/11/17 06:32:13;;;;;;;23.77;9.88;;;;;;;8.35;72.31;100549.75;5048623;28;20029;-38
2021/11/17 06:34:41;;;;;;;16.85;9.05;;;;;;;8.65;70.68;100540.25;5048052;28;20052;-38
2021/11/17 06:37:11;;;;;;;17.25;9.25;;;;;;;8.53;70.96;100557.50;5048612;28;20479;-36
2021/11/17 06:39:37;;;;;;;15.95;8.75;;;;;;;8.62;71.05;100559.16;5038053;28;20063;-38
2021/11/17 06:42:05;;;;;;;15.85;9.45;;;;;;;8.67;70.97;100561.31;5048905;28;20391;-37
2021/11/17 06:44:30;;;;;;;12.38;8.07;;;;;;;8.53;70.74;100561.00;5048131;28;20044;-38
2021/11/17 06:46:56;;;;;;;14.00;8.07;;;;;;;8.76;70.36;100560.28;5048715;28;20055;-38
2021/11/17 06:49:21;;;;;;;13.50;8.10;;;;;;;8.79;70.16;100559.91;5049305;28;20104;-37
2021/11/17 06:51:48;;;;;;;17.67;8.07;;;;;;;8.78;70.09;100558.28;5049071;28;20333;-38
2021/11/17 06:54:14;;;;;;;14.05;6.43;;;;;;;8.66;70.31;100552.50;5048733;28;20043;-38
2021/11/17 06:56:39;;;;;;;11.23;7.28;;;;;;;8.76;69.73;100552.31;5049624;28;20029;-38
2021/11/17 06:59:05;;;;;;;15.90;7.35;;;;;;;8.58;70.53;100518.84;5050093;28;20025;-37
2021/11/17 07:01:30;;;;;;;13.88;7.30;;;;;;;8.41;71.27;100546.41;5048455;28;20029;-38
2021/11/17 07:03:56;;;;;;;13.80;7.28;;;;;;;8.28;71.97;100549.59;5049923;28;20031;-37
2021/11/17 07:06:21;;;;;;;19.58;7.43;;;;;;;8.38;71.73;100539.63;5049225;28;20368;-38
2021/11/17 07:08:46;;;;;;;17.08;6.70;;;;;;;8.23;72.11;100543.97;5047656;28;20033;-37
2021/11/17 07:11:12;;;;;;;16.40;7.18;;;;;;;8.59;70.64;100540.94;5049568;28;20377;-38
2021/11/17 07:13:38;;;;;;;11.38;5.85;;;;;;;8.53;70.47;100542.44;5048907;28;20025;-42
2021/11/17 07:16:03;;;;;;;14.10;6.03;;;;;;;8.38;70.74;100534.31;5049535;28;20143;-38
2021/11/17 07:18:29;;;;;;;10.93;6.63;;;;;;;8.33;71.25;100539.31;5049355;28;20033;-39
2021/11/17 07:20:55;;;;;;;11.57;6.25;;;;;;;8.17;71.72;100539.34;5048100;28;20083;-37
2021/11/17 07:23:20;;;;;;;15.60;5.90;;;;;;;8.30;71.21;100539.66;5049261;28;20024;-37
2021/11/17 07:25:46;;;;;;;10.93;5.18;;;;;;;8.39;70.68;100538.63;5047848;28;20049;-37
2021/11/17 07:28:11;;;;;;;8.63;5.30;;;;;;;8.79;69.34;100539.50;5047926;28;20108;-38
2021/11/17 07:30:39;;;;;;;17.88;4.97;;;;;;;8.76;69.63;100544.34;5048932;28;20420;-38
2021/11/17 07:33:04;;;;;;;13.60;6.68;;;;;;;8.75;69.87;100540.84;5048896;28;20028;-38
2021/11/17 07:35:31;;;;;;;12.13;5.72;;;;;;;8.92;68.73;100532.84;5048230;28;20276;-38
2021/11/17 07:38:03;;;;;;;16.15;5.72;;;;;;;8.92;69.33;100540.78;5048788;28;20099;-38
2021/11/17 07:40:34;;;;;;;11.13;4.88;;;;;;;8.84;69.13;100548.81;5048224;28;20052;-39
2021/11/17 07:42:59;;;;;;;13.80;5.03;;;;;;;8.91;68.87;100539.13;5048574;28;20035;-38
2021/11/17 07:45:25;;;;;;;9.98;4.88;;;;;;;9.78;65.92;100541.56;5047207;28;20029;-38
2021/11/17 07:47:51;;;;;;;13.48;4.72;;;;;;;10.03;64.63;100541.34;5046943;28;20036;-38
2021/11/17 07:50:16;;;;;;;9.38;4.80;;;;;;;9.34;66.13;100535.06;5047462;28;20025;-38
2021/11/17 07:52:41;;;;;;;13.00;5.00;;;;;;;9.08;67.12;100538.06;5047522;28;20044;-38
2021/11/17 07:55:09;;;;;;;11.52;4.80;;;;;;;9.02;67.64;100546.72;5047195;28;20033;-38
2021/11/17 07:57:36;;;;;;;14.45;6.47;;;;;;;9.17;67.41;100542.31;5047545;28;20032;-38
2021/11/17 08:00:03;;;;;;;10.93;4.90;;;;;;;9.04;67.58;100541.22;5047452;28;20086;-38
2021/11/17 08:02:29;;;;;;;9.60;4.43;;;;;;;9.20;66.95;100549.94;5047587;28;20158;-38
2021/11/17 08:04:54;;;;;;;8.25;4.05;;;;;;;9.33;66.63;100544.06;5047341;28;20050;-38
2021/11/17 08:07:20;;;;;;;6.82;4.40;;;;;;;9.26;66.76;100540.44;5033284;28;20021;-38
2021/11/17 08:09:46;;;;;;;9.13;4.30;;;;;;;9.58;65.60;100531.44;5051390;28;20025;-38
2021/11/17 08:12:12;;;;;;;9.43;4.07;;;;;;;9.64;65.21;100543.19;5033911;28;20045;-38
2021/11/17 08:14:37;;;;;;;5.97;3.78;;;;;;;9.51;65.71;100545.59;5051619;28;20064;-38
2021/11/17 08:17:04;;;;;;;7.15;3.47;;;;;;;9.35;66.21;100547.38;5052105;28;20056;-38
2021/11/17 08:19:29;;;;;;;6.65;3.72;;;;;;;9.97;66.53;100538.41;5052600;28;20029;-38
2021/11/17 08:21:55;;;;;;;9.60;3.30;;;;;;;10.38;63.03;100545.22;5051355;28;20078;-39
2021/11/17 08:24:21;;;;;;;10.00;3.70;;;;;;;10.22;65.13;100538.19;5052626;28;20473;-37
2021/11/17 08:26:47;;;;;;;12.43;3.78;;;;;;;10.19;62.44;100538.56;5052605;28;20021;-38
2021/11/17 08:29:13;;;;;;;7.95;3.05;;;;;;;10.30;65.90;100539.94;5053544;28;20052;-37
2021/11/17 08:31:38;;;;;;;12.88;3.58;;;;;;;10.60;61.41;100539.97;5053547;28;20080;-38
2021/11/17 08:34:04;;;;;;;5.00;3.00;;;;;;;10.72;60.25;100539.34;5052068;28;20505;-38
2021/11/17 08:36:29;;;;;;;5.25;3.15;;;;;;;10.97;61.60;100541.69;5051370;28;20429;-38
2021/11/17 08:38:55;;;;;;;5.50;3.60;;;;;;;11.11;60.43;100550.66;5052808;28;20036;-38
2021/11/17 08:41:23;;;;;;;8.95;3.40;;;;;;;11.04;59.38;100550.59;5051951;28;20028;-40
2021/11/17 08:43:49;;;;;;;8.38;3.65;;;;;;;10.53;62.84;100548.69;5052112;28;20640;-38
2021/11/17 08:46:15;;;;;;;10.95;3.85;;;;;;;10.63;61.80;100558.25;5050804;28;20036;-38
2021/11/17 08:48:41;;;;;;;11.70;4.25;;;;;;;10.94;60.66;100560.69;5050773;28;20039;-38
2021/11/17 08:51:12;;;;;;;12.15;4.55;;;;;;;11.23;59.79;100562.50;5051135;28;20499;-38
2021/11/17 08:53:38;;;;;;;15.43;4.80;;;;;;;11.49;58.23;100553.94;5050883;28;20134;-38
2021/11/17 08:56:05;;;;;;;17.30;5.43;;;;;;;10.81;58.15;100557.88;5051407;28;20028;-39
2021/11/17 08:58:30;;;;;;;12.88;5.07;;;;;;;10.93;58.18;100546.56;5051438;28;20025;-37
2021/11/17 09:00:56;;;;;;;13.38;5.30;;;;;;;11.53;59.26;100551.72;5051184;28;20032;-37
2021/11/17 09:03:22;;;;;;;10.23;4.65;;;;;;;11.85;57.79;100547.72;5051172;28;20472;-39
2021/11/17 09:05:53;;;;;;;10.55;4.60;;;;;;;11.75;57.64;100547.22;5050563;28;20054;-38
2021/11/17 09:08:19;;;;;;;11.15;4.75;;;;;;;11.75;56.49;100552.56;5050755;28;20029;-38
2021/11/17 09:10:47;;;;;;;7.93;4.18;;;;;;;10.92;56.65;100544.06;5050892;28;20397;-38
2021/11/17 09:13:14;;;;;;;8.15;4.43;;;;;;;11.14;55.58;100542.31;5049265;28;20480;-38
2021/11/17 09:15:41;;;;;;;8.45;4.28;;;;;;;11.26;55.30;100545.28;5050371;28;20393;-38
2021/11/17 09:18:07;;;;;;;8.52;3.90;;;;;;;11.04;57.01;100541.75;5050605;28;20061;-38
2021/11/17 09:20:32;;;;;;;10.25;4.22;;;;;;;11.37;55.49;100536.00;5050715;28;20465;-38
2021/11/17 09:22:58;;;;;;;6.47;3.55;;;;;;;12.11;55.48;100535.66;5050643;28;20100;-38
2021/11/17 09:25:24;;;;;;;11.48;4.07;;;;;;;11.74;55.28;100527.72;5050808;28;20063;-38
2021/11/17 09:27:50;;;;;;;13.68;4.75;;;;;;;11.48;56.40;100535.47;5050923;28;20507;-38
2021/11/17 09:30:18;;;;;;;9.68;4.65;;;;;;;11.55;56.45;100536.34;5050634;28;20028;-38
2021/11/17 09:32:45;;;;;;;10.25;3.95;;;;;;;12.12;54.89;100529.28;5050307;28;20108;-38
2021/11/17 09:35:12;;;;;;;7.55;4.57;;;;;;;12.20;53.49;100525.63;5032430;28;20481;-39
2021/11/17 09:37:38;;;;;;;10.45;4.47;;;;;;;12.34;54.34;100527.38;5050393;28;20037;-38
2021/11/17 09:40:06;;;;;;;9.30;4.30;;;;;;;12.25;53.52;100526.69;5050428;28;20032;-38
2021/11/17 09:42:31;;;;;;;9.73;4.15;;;;;;;12.03;53.33;100517.09;5050664;28;20036;-38
2021/11/17 09:44:57;;;;;;;9.70;4.45;;;;;;;12.06;51.72;100527.41;5048933;28;20021;-38
2021/11/17 09:47:23;;;;;;;8.02;4.10;;;;;;;11.66;52.88;100521.72;5047993;28;20033;-38
2021/11/17 09:50:07;;;;;;;5.65;3.40;;;;;;;11.74;53.31;100518.91;5049712;28;20520;-39
2021/11/17 09:52:43;;;;;;;5.65;3.55;;;;;;;11.88;52.47;100517.16;5050971;28;20027;-39
2021/11/17 09:55:22;;;;;;;8.68;3.78;;;;;;;11.37;51.87;100512.00;5050105;28;20025;-39
2021/11/17 09:57:59;;;;;;;8.13;3.50;;;;;;;11.06;53.39;100513.09;5049763;28;20136;-37
2021/11/17 10:01:08;;;;;;;6.50;3.70;;;;;;;11.95;51.38;100509.25;5048603;28;20033;-37
2021/11/17 10:03:46;;;;;;;6.50;3.45;;;;;;;11.52;52.38;100494.09;5049309;28;20104;-38
2021/11/17 10:10:02;;;;;;;6.82;3.60;;;;;;;11.13;54.89;100485.50;5035879;28;20448;-37
2021/11/17 10:13:20;;;;;;;5.78;3.47;;;;;;;10.89;51.89;100484.03;5048050;28;20079;-38
2021/11/17 10:15:51;;;;;;;7.32;4.43;;;;;;;11.31;49.04;100481.63;5036132;28;20052;-38
2021/11/17 10:18:16;;;;;;;7.93;4.25;;;;;;;11.41;49.62;100476.78;5047990;28;20439;-37
2021/11/17 10:20:48;;;;;;;5.75;3.88;;;;;;;11.26;50.52;100479.50;5049593;28;20029;-38
2021/11/17 10:23:22;;;;;;;5.97;4.03;;;;;;;10.97;51.30;100472.44;5049510;28;20016;-38
2021/11/17 10:25:51;;;;;;;6.20;4.25;;;;;;;10.57;52.80;100467.47;5049167;28;20024;-38
2021/11/17 10:28:21;;;;;;;;;;;;;;;11.02;51.65;100469.22;5048722;28;20029;-37
2021/11/17 10:30:52;;;;;;;8.00;4.38;;;;;;;11.37;51.72;100458.72;5049188;28;20294;-37
2021/11/17 10:33:38;;;;;;;7.15;4.55;;;;;;;11.26;51.71;100463.53;5048086;28;20044;-38
2021/11/17 10:36:15;;;;;;;9.98;5.20;;;;;;;11.01;51.58;100456.91;5047115;28;20052;-38
2021/11/17 10:38:46;;;;;;;8.82;5.43;;;;;;;10.80;51.62;100452.41;5049206;28;20111;-37
2021/11/17 10:41:31;;;;;;;8.00;5.10;;;;;;;10.48;53.01;100462.44;5048756;28;20033;-38
2021/11/17 10:44:05;;;;;;;8.40;5.90;;;;;;;10.78;51.98;100455.25;5049521;28;20167;-38
2021/11/17 10:46:32;;;;;;;8.52;5.38;;;;;;;10.96;52.81;100457.47;5048594;28;20108;-38
2021/11/17 10:49:04;;;;;;;8.43;5.68;;;;;;;11.33;51.18;100448.44;5048236;28;20073;-39
2021/11/17 10:51:34;;;;;;;10.55;6.22;;;;;;;11.34;50.36;100443.91;5049462;28;20043;-39
2021/11/17 10:54:08;;;;;;;9.57;6.20;;;;;;;11.46;50.42;100446.88;5048719;28;20059;-39
2021/11/17 10:56:33;;;;;;;13.43;7.68;;;;;;;11.49;49.54;100446.50;5048318;28;20103;-39
2021/11/17 10:58:59;;;;;;;7.32;5.20;;;;;;;11.52;48.88;100440.81;5049503;28;20032;-38
2021/11/17 11:01:29;;;;;;;7.63;5.10;;;;;;;11.47;48.74;100438.69;5048925;28;20067;-39
2021/11/17 11:04:00;;;;;;;8.13;5.18;;;;;;;11.25;48.51;100440.56;5049994;28;20032;-39
2021/11/17 11:06:43;;;;;;;9.35;5.60;;;;;;;11.44;48.35;100438.25;5047892;28;20404;-40
2021/11/17 11:09:14;;;;;;;7.65;5.28;;;;;;;11.17;48.84;100429.22;5032280;28;20033;-38
2021/11/17 11:11:45;;;;;;;7.47;5.28;;;;;;;11.69;48.71;100439.50;5032271;28;20029;-38
2021/11/17 11:14:12;;;;;;;8.88;5.05;;;;;;;11.76;47.75;100434.19;5031527;28;20083;-38
2021/11/17 11:17:02;;;;;;;8.75;5.00;;;;;;;11.52;49.15;100436.28;5047193;28;20108;-39
2021/11/17 11:19:30;;;;;;;9.73;6.30;;;;;;;11.58;47.78;100424.03;5040841;28;20139;-48
2021/11/17 11:22:06;;;;;;;9.57;6.57;;;;;;;11.51;49.01;100434.63;5049247;28;20127;-48
2021/11/17 11:24:34;;;;;;;9.82;5.72;;;;;;;11.66;50.00;100426.53;5048609;28;20079;-48
2021/11/17 11:26:59;;;;;;;8.52;5.57;;;;;;;12.60;48.27;100435.91;5047990;28;20446;-48
2021/11/17 11:29:37;;;;;;;7.20;5.05;;;;;;;12.54;47.58;100422.56;5048354;28;20040;-49
2021/11/17 11:32:04;;;;;;;8.48;5.05;;;;;;;12.03;48.18;100427.25;5045430;28;20582;-47
2021/11/17 11:34:34;;;;;;;8.30;5.03;;;;;;;11.88;48.79;100423.81;5048334;28;20053;-47
2021/11/17 11:37:01;;;;;;;10.20;5.10;;;;;;;11.62;48.69;100422.63;5048577;28;20138;-47
2021/11/17 11:39:32;;;;;;;9.60;5.25;;;;;;;11.62;48.45;100419.94;5048209;28;20128;-47
2021/11/17 11:42:13;;;;;;;7.78;5.40;;;;;;;11.72;48.78;100423.09;5046158;28;20029;-48
2021/11/17 11:44:42;;;;;;;9.48;5.05;;;;;;;11.70;48.64;100419.81;5047077;28;20028;-47
2021/11/17 11:47:10;;;;;;;7.93;5.30;;;;;;;11.46;49.17;100426.41;5047084;28;20032;-47
2021/11/17 11:49:41;;;;;;;9.40;5.63;;;;;;;11.45;49.57;100418.59;5047379;28;20025;-48
2021/11/17 11:52:24;;;;;;;8.63;5.13;;;;;;;11.86;48.04;100405.38;5047933;28;20083;-47
2021/11/17 11:54:55;;;;;;;8.50;5.43;;;;;;;11.54;49.41;100415.59;5054107;28;20020;-49
2021/11/17 11:57:32;;;;;;;10.55;5.32;;;;;;;11.68;49.11;100416.50;5057812;28;20094;-47
2021/11/17 12:00:18;;;;;;;7.28;5.20;;;;;;;11.65;49.07;100418.72;5062286;28;20042;-49
2021/11/17 12:02:51;;;;;;;8.73;5.30;;;;;;;11.96;48.36;100409.56;5036755;28;20052;-48
2021/11/17 12:05:53;;;;;;;7.45;5.53;;;;;;;11.65;49.71;100411.59;5057692;28;20040;-48
2021/11/17 12:08:18;;;;;;;10.32;5.93;;;;;;;11.65;49.43;100416.91;5043456;28;20072;-50
2021/11/17 12:11:11;;;;;;;9.82;5.85;;;;;;;11.98;48.94;100418.19;5062929;28;20517;-47
2021/11/17 12:13:44;;;;;;;8.75;5.78;;;;;;;12.40;47.64;100411.81;5058904;28;20021;-48
2021/11/17 12:16:14;;;;;;;8.23;5.10;;;;;;;11.88;48.59;100421.16;5050946;28;20350;-47
2021/11/17 12:18:52;;;;;;;9.65;4.63;;;;;;;11.61;49.98;100414.81;5033330;28;20063;-47
2021/11/17 12:21:20;;;;;;;9.60;4.95;;;;;;;11.31;49.96;100412.34;5047471;28;20079;-48
2021/11/17 12:23:45;;;;;;;9.10;4.80;;;;;;;11.72;48.61;100414.28;5047626;28;20025;-49
2021/11/17 12:26:17;;;;;;;7.35;4.88;;;;;;;11.90;48.98;100411.16;5046940;28;20036;-48
2021/11/17 12:29:04;;;;;;;9.63;4.85;;;;;;;11.91;48.22;100410.94;5047510;28;20060;-48
2021/11/17 12:31:39;;;;;;;9.38;4.82;;;;;;;11.88;48.91;100410.47;5047578;28;20017;-48
2021/11/17 12:34:12;;;;;;;10.40;4.93;;;;;;;11.78;48.71;100404.69;5029549;28;20126;-48
2021/11/17 12:36:56;;;;;;;7.78;4.65;;;;;;;11.37;49.02;100355.59;5045417;28;20040;-48
2021/11/17 12:39:22;;;;;;;9.02;5.47;;;;;;;11.61;48.89;100402.28;5045787;28;20082;-48
2021/11/17 12:41:54;;;;;;;6.82;4.70;;;;;;;11.41;49.35;100399.50;5047186;28;20040;-51
2021/11/17 12:44:39;;;;;;;10.48;5.00;;;;;;;11.27;50.60;100398.56;5045735;28;20021;-49
2021/11/17 12:47:14;;;;;;;8.88;5.43;;;;;;;11.37;50.32;100397.41;5026408;28;20462;-48
2021/11/17 12:49:46;;;;;;;9.15;4.90;;;;;;;11.43;49.98;100391.31;5025844;28;20034;-48
2021/11/17 12:52:29;;;;;;;8.57;4.88;;;;;;;11.34;50.78;100394.09;5028662;28;20112;-48
2021/11/17 12:54:54;;;;;;;11.38;5.05;;;;;;;11.32;50.83;100388.13;5029189;28;20161;-50
2021/11/17 12:57:53;;;;;;;11.13;5.13;;;;;;;11.41;50.32;100394.16;5030481;28;20057;-51
2021/11/17 13:00:19;;;;;;;8.25;5.00;;;;;;;11.47;50.07;100388.06;5018575;28;20049;-49
2021/11/17 13:02:46;;;;;;;9.43;5.18;;;;;;;11.82;49.20;100389.94;5030821;28;20141;-48
2021/11/17 13:05:37;;;;;;;12.38;5.70;;;;;;;11.66;49.53;100388.41;5028923;28;20029;-48
2021/11/17 13:08:03;;;;;;;9.75;5.10;;;;;;;11.51;50.03;100389.31;5029190;28;20512;-48
2021/11/17 13:10:49;;;;;;;11.80;5.30;;;;;;;11.37;50.36;100387.59;5030856;28;20037;-46
2021/11/17 13:13:27;;;;;;;6.82;4.85;;;;;;;11.17;51.27;100382.06;5029444;28;20060;-38
2021/11/17 13:16:01;;;;;;;7.97;4.93;;;;;;;11.20;50.53;100392.34;5046971;28;20374;-39
2021/11/17 13:18:28;;;;;;;8.90;4.97;;;;;;;11.04;51.75;100390.78;5033644;28;20048;-39
2021/11/17 13:21:20;;;;;;;6.32;4.80;;;;;;;10.96;51.32;100386.38;5050397;28;20443;-39
2021/11/17 13:24:21;;;;;;;9.63;5.10;;;;;;;10.99;52.07;100387.88;5049867;28;20110;-37
2021/11/17 13:27:13;;;;;;;8.50;5.20;;;;;;;10.91;52.26;100386.16;5047312;28;20362;-38
2021/11/17 13:30:17;;;;;;;8.10;4.88;;;;;;;11.00;51.77;100386.00;5047275;28;20045;-38
2021/11/17 13:32:44;;;;;;;10.32;5.10;;;;;;;11.27;50.86;100379.06;5025830;28;20489;-38
2021/11/17 13:35:28;;;;;;;12.00;4.88;;;;;;;11.10;51.88;100381.19;5025466;28;20049;-38
2021/11/17 13:38:23;;;;;;;11.05;4.78;;;;;;;10.81;51.99;100384.81;5039943;28;20104;-38
2021/11/17 13:40:56;;;;;;;8.55;5.22;;;;;;;10.76;52.66;100378.22;5049135;28;20028;-37
2021/11/17 13:43:22;;;;;;;8.85;4.15;;;;;;;10.75;52.91;100379.22;5050536;28;20145;-38
2021/11/17 13:45:51;;;;;;;6.50;4.60;;;;;;;10.98;52.38;100385.38;5049826;28;20089;-38
2021/11/17 13:48:18;;;;;;;5.88;4.43;;;;;;;11.43;50.87;100381.47;5050099;28;20063;-38
2021/11/17 13:50:43;;;;;;;10.07;4.60;;;;;;;11.42;51.41;100387.00;5048445;28;20108;-38
2021/11/17 13:53:10;;;;;;;7.63;4.25;;;;;;;10.88;52.05;100375.06;5049746;28;20446;-38
2021/11/17 13:55:39;;;;;;;8.15;4.45;;;;;;;10.83;52.39;100374.78;5050121;28;20481;-38
2021/11/17 13:58:05;;;;;;;7.25;4.18;;;;;;;10.79;51.87;100377.00;5050422;28;20025;-38
2021/11/17 14:00:31;;;;;;;8.88;4.60;;;;;;;10.65;52.48;100376.03;5048539;28;20082;-38
2021/11/17 14:02:58;;;;;;;10.77;4.53;;;;;;;10.80;52.51;100369.88;5050068;28;20131;-39
2021/11/17 14:05:24;;;;;;;6.97;4.43;;;;;;;10.67;53.08;100382.00;5049470;28;20051;-38
2021/11/17 14:07:49;;;;;;;7.72;4.63;;;;;;;10.51;52.48;100376.94;5048948;28;20392;-38
2021/11/17 14:10:17;;;;;;;9.02;4.90;;;;;;;10.92;51.57;100387.78;5049775;28;20025;-38
2021/11/17 14:12:43;;;;;;;10.70;5.40;;;;;;;10.90;52.38;100375.69;5049717;28;20102;-38
2021/11/17 14:15:08;;;;;;;8.50;5.38;;;;;;;11.05;51.67;100380.94;5049526;28;20481;-39
2021/11/17 14:17:34;;;;;;;10.90;5.40;;;;;;;10.93;51.83;100376.13;5049287;28;20052;-39
2021/11/17 14:20:00;;;;;;;10.77;5.68;;;;;;;10.88;52.69;100380.38;5049052;28;20020;-37
2021/11/17 14:22:26;;;;;;;12.52;5.88;;;;;;;11.05;52.46;100381.75;5048075;28;20033;-38
2021/11/17 14:24:56;;;;;;;9.65;5.25;;;;;;;10.89;52.85;100379.34;5047543;28;20036;-38
2021/11/17 14:27:22;;;;;;;8.55;5.15;;;;;;;10.89;52.04;100374.88;5048773;28;20408;-38
2021/11/17 14:29:51;;;;;;;9.98;5.75;;;;;;;10.70;52.96;100378.97;5031251;28;20029;-38